createdAt,value
2023-01-19T00:00:12.236Z,987.38
2023-01-19T00:01:12.170Z,987.33
2023-01-19T00:02:12.177Z,987.38
2023-01-19T00:03:12.191Z,987.42
2023-01-19T00:04:12.141Z,987.41
2023-01-19T00:05:12.155Z,987.46
2023-01-19T00:06:12.188Z,987.43
2023-01-19T00:07:12.115Z,987.39
2023-01-19T00:08:12.144Z,987.37
2023-01-19T00:09:12.082Z,987.37
2023-01-19T00:10:12.143Z,987.40
2023-01-19T00:11:12.065Z,987.34
2023-01-19T00:12:12.067Z,987.34
2023-01-19T00:13:12.042Z,987.34
2023-01-19T00:14:12.125Z,987.32
2023-01-19T00:15:12.072Z,987.31
2023-01-19T00:16:12.037Z,987.39
2023-01-19T00:17:11.995Z,987.41
2023-01-19T00:18:11.973Z,987.39
2023-01-19T00:19:11.986Z,987.36
2023-01-19T00:20:11.977Z,987.42
2023-01-19T00:21:11.990Z,987.40
2023-01-19T00:22:11.943Z,987.39
2023-01-19T00:23:11.946Z,987.35
2023-01-19T00:24:11.958Z,987.33
2023-01-19T00:25:11.929Z,987.38
2023-01-19T00:26:11.907Z,987.36
2023-01-19T00:27:11.906Z,987.36
2023-01-19T00:28:11.890Z,987.36
2023-01-19T00:29:11.908Z,987.40
2023-01-19T00:30:11.905Z,987.38
2023-01-19T00:31:11.882Z,987.38
2023-01-19T00:32:11.828Z,987.43
2023-01-19T00:33:11.839Z,987.41
2023-01-19T00:34:11.808Z,987.49
2023-01-19T00:35:11.807Z,987.50
2023-01-19T00:36:11.826Z,987.44
2023-01-19T00:37:11.763Z,987.43
2023-01-19T00:38:11.789Z,987.46
2023-01-19T00:39:11.745Z,987.49
2023-01-19T00:40:11.741Z,987.50
2023-01-19T00:41:11.757Z,987.48
2023-01-19T00:42:11.712Z,987.44
2023-01-19T00:43:11.760Z,987.56
2023-01-19T00:44:11.816Z,987.54
2023-01-19T00:45:11.676Z,987.57
2023-01-19T00:46:11.742Z,987.59
2023-01-19T00:47:11.658Z,987.63
2023-01-19T00:48:11.670Z,987.61
2023-01-19T00:49:11.640Z,987.59
2023-01-19T00:50:11.663Z,987.61
2023-01-19T00:51:11.637Z,987.64
2023-01-19T00:52:11.599Z,987.64
2023-01-19T00:53:11.588Z,987.61
2023-01-19T00:54:11.579Z,987.64
2023-01-19T00:55:11.616Z,987.68
2023-01-19T00:56:11.601Z,987.64
2023-01-19T00:57:11.578Z,987.61
2023-01-19T00:58:11.547Z,987.65
2023-01-19T00:59:11.532Z,987.59
2023-01-19T01:00:11.546Z,987.64
2023-01-19T01:01:11.608Z,987.64
2023-01-19T01:02:11.783Z,987.58
2023-01-19T01:03:11.676Z,987.62
2023-01-19T01:04:11.513Z,987.56
2023-01-19T01:05:11.476Z,987.66
2023-01-19T01:06:11.454Z,987.59
2023-01-19T01:07:11.418Z,987.64
2023-01-19T01:08:11.469Z,987.60
2023-01-19T01:09:11.417Z,987.64
2023-01-19T01:10:11.414Z,987.69
2023-01-19T01:11:11.387Z,987.74
2023-01-19T01:12:11.388Z,987.74
2023-01-19T01:13:21.742Z,987.80
2023-01-19T01:14:12.369Z,987.77
2023-01-19T01:15:11.366Z,987.76
2023-01-19T01:16:11.361Z,987.76
2023-01-19T01:17:11.356Z,987.77
2023-01-19T01:18:11.363Z,987.81
2023-01-19T01:19:11.327Z,987.75
2023-01-19T01:20:11.319Z,987.77
2023-01-19T01:21:11.285Z,987.72
2023-01-19T01:22:11.274Z,987.79
2023-01-19T01:23:11.255Z,987.78
2023-01-19T01:24:11.313Z,987.74
2023-01-19T01:25:11.268Z,987.73
2023-01-19T01:26:11.212Z,987.80
2023-01-19T01:27:11.204Z,987.74
2023-01-19T01:28:11.214Z,987.72
2023-01-19T01:29:11.235Z,987.80
2023-01-19T01:30:11.219Z,987.81
2023-01-19T01:31:11.175Z,987.77
2023-01-19T01:32:11.173Z,987.80
2023-01-19T01:33:11.142Z,987.79
2023-01-19T01:34:11.182Z,987.86
2023-01-19T01:35:11.142Z,987.85
2023-01-19T01:36:11.120Z,987.86
2023-01-19T01:37:11.136Z,987.89
2023-01-19T01:38:11.115Z,987.88
2023-01-19T01:39:11.077Z,987.90
2023-01-19T01:40:11.071Z,987.88
2023-01-19T01:41:11.085Z,987.88
2023-01-19T01:42:11.082Z,987.83
2023-01-19T01:43:11.066Z,987.91
2023-01-19T01:44:11.044Z,987.93
2023-01-19T01:45:11.017Z,987.91
2023-01-19T01:46:11.062Z,987.93
2023-01-19T01:47:11.035Z,987.88
2023-01-19T01:48:10.971Z,987.93
2023-01-19T01:49:10.964Z,987.89
2023-01-19T01:50:10.975Z,987.92
2023-01-19T01:51:10.982Z,987.90
2023-01-19T01:52:10.925Z,987.98
2023-01-19T01:53:11.149Z,987.94
2023-01-19T01:54:10.915Z,987.95
2023-01-19T01:55:10.928Z,987.98
2023-01-19T01:56:10.930Z,987.96
2023-01-19T01:57:10.872Z,987.95
2023-01-19T01:58:10.908Z,987.92
2023-01-19T01:59:10.858Z,987.97
2023-01-19T02:00:10.854Z,987.90
2023-01-19T02:01:10.965Z,987.91
2023-01-19T02:02:10.860Z,987.86
2023-01-19T02:03:10.853Z,987.96
2023-01-19T02:04:10.829Z,987.91
2023-01-19T02:05:10.779Z,988.00
2023-01-19T02:06:10.757Z,988.00
2023-01-19T02:07:10.778Z,987.94
2023-01-19T02:08:10.780Z,988.02
2023-01-19T02:09:10.773Z,988.02
2023-01-19T02:10:10.730Z,988.05
2023-01-19T02:11:10.724Z,988.03
2023-01-19T02:12:10.710Z,988.00
2023-01-19T02:13:10.686Z,987.98
2023-01-19T02:14:10.707Z,988.01
2023-01-19T02:15:10.703Z,988.06
2023-01-19T02:16:10.666Z,988.04
2023-01-19T02:17:10.638Z,988.11
2023-01-19T02:18:10.642Z,988.06
2023-01-19T02:19:10.671Z,988.07
2023-01-19T02:20:10.636Z,988.01
2023-01-19T02:21:10.651Z,987.96
2023-01-19T02:22:10.593Z,987.98
2023-01-19T02:23:10.582Z,987.99
2023-01-19T02:24:10.580Z,988.02
2023-01-19T02:25:10.583Z,987.97
2023-01-19T02:26:10.593Z,987.95
2023-01-19T02:27:10.605Z,987.98
2023-01-19T02:28:10.532Z,987.98
2023-01-19T02:29:10.532Z,988.01
2023-01-19T02:30:10.513Z,987.97
2023-01-19T02:31:10.503Z,988.01
2023-01-19T02:32:10.514Z,988.03
2023-01-19T02:33:10.460Z,987.97
2023-01-19T02:34:10.468Z,987.99
2023-01-19T02:35:10.453Z,987.95
2023-01-19T02:36:10.464Z,987.98
2023-01-19T02:37:10.492Z,987.95
2023-01-19T02:38:10.413Z,987.97
2023-01-19T02:39:10.391Z,988.00
2023-01-19T02:40:10.411Z,987.95
2023-01-19T02:41:10.404Z,987.98
2023-01-19T02:42:10.361Z,987.87
2023-01-19T02:43:10.390Z,987.91
2023-01-19T02:44:10.463Z,987.94
2023-01-19T02:45:10.344Z,987.92
2023-01-19T02:46:10.367Z,987.90
2023-01-19T02:47:10.325Z,987.95
2023-01-19T02:48:10.325Z,987.93
2023-01-19T02:49:10.345Z,987.88
2023-01-19T02:50:10.292Z,987.83
2023-01-19T02:51:10.315Z,987.83
2023-01-19T02:52:10.272Z,987.86
2023-01-19T02:53:10.246Z,987.90
2023-01-19T02:54:10.265Z,987.85
2023-01-19T02:55:10.231Z,987.87
2023-01-19T02:56:10.192Z,987.83
2023-01-19T02:57:10.201Z,987.85
2023-01-19T02:58:10.176Z,987.90
2023-01-19T02:59:10.173Z,987.89
2023-01-19T03:00:10.196Z,987.85
2023-01-19T03:01:10.253Z,987.92
2023-01-19T03:02:10.257Z,987.84
2023-01-19T03:03:10.123Z,987.84
2023-01-19T03:04:10.113Z,987.82
2023-01-19T03:05:10.144Z,987.83
2023-01-19T03:06:10.096Z,987.85
2023-01-19T03:07:10.096Z,987.80
2023-01-19T03:08:10.156Z,987.85
2023-01-19T03:09:10.043Z,987.85
2023-01-19T03:10:10.077Z,987.85
2023-01-19T03:11:10.045Z,987.83
2023-01-19T03:12:10.057Z,987.86
2023-01-19T03:13:10.018Z,987.92
2023-01-19T03:14:10.048Z,987.88
2023-01-19T03:15:09.998Z,987.87
2023-01-19T03:16:10.114Z,987.86
2023-01-19T03:17:09.998Z,987.92
2023-01-19T03:18:09.978Z,987.87
2023-01-19T03:19:09.962Z,987.86
2023-01-19T03:20:09.951Z,987.85
2023-01-19T03:21:09.949Z,987.89
2023-01-19T03:22:09.909Z,987.93
2023-01-19T03:23:09.894Z,987.93
2023-01-19T03:24:09.875Z,987.89
2023-01-19T03:25:09.911Z,987.88
2023-01-19T03:26:09.886Z,987.87
2023-01-19T03:27:09.890Z,987.84
2023-01-19T03:28:09.859Z,987.82
2023-01-19T03:29:09.847Z,987.87
2023-01-19T03:30:09.857Z,987.87
2023-01-19T03:31:09.862Z,987.85
2023-01-19T03:32:09.819Z,987.90
2023-01-19T03:33:09.830Z,987.85
2023-01-19T03:34:09.778Z,987.84
2023-01-19T03:35:09.798Z,987.81
2023-01-19T03:36:09.750Z,987.80
2023-01-19T03:37:09.757Z,987.86
2023-01-19T03:38:09.771Z,987.84
2023-01-19T03:39:09.733Z,987.82
2023-01-19T03:40:09.697Z,987.81
2023-01-19T03:41:09.752Z,987.84
2023-01-19T03:42:09.723Z,987.84
2023-01-19T03:43:09.704Z,987.85
2023-01-19T03:44:09.661Z,987.91
2023-01-19T03:45:09.653Z,987.90
2023-01-19T03:46:09.710Z,987.89
2023-01-19T03:47:09.661Z,987.99
2023-01-19T03:48:09.653Z,987.95
2023-01-19T03:49:09.640Z,987.90
2023-01-19T03:50:09.609Z,987.87
2023-01-19T03:51:09.618Z,987.97
2023-01-19T03:52:09.585Z,987.92
2023-01-19T03:53:09.607Z,988.02
2023-01-19T03:54:09.569Z,987.95
2023-01-19T03:55:09.564Z,987.96
2023-01-19T03:56:09.546Z,987.91
2023-01-19T03:57:09.511Z,987.90
2023-01-19T03:58:09.538Z,987.96
2023-01-19T03:59:09.529Z,987.95
2023-01-19T04:00:09.474Z,987.93
2023-01-19T04:01:09.615Z,987.94
2023-01-19T04:02:09.603Z,987.94
2023-01-19T04:03:09.503Z,987.98
2023-01-19T04:04:09.436Z,987.94
2023-01-19T04:05:09.423Z,987.98
2023-01-19T04:06:09.440Z,987.97
2023-01-19T04:07:09.401Z,987.99
2023-01-19T04:08:09.475Z,987.96
2023-01-19T04:09:09.373Z,987.95
2023-01-19T04:10:09.377Z,987.94
2023-01-19T04:11:09.390Z,987.98
2023-01-19T04:12:09.348Z,987.98
2023-01-19T04:13:09.367Z,987.98
2023-01-19T04:14:09.367Z,987.98
2023-01-19T04:15:09.311Z,988.02
2023-01-19T04:16:09.326Z,988.03
2023-01-19T04:17:09.311Z,987.94
2023-01-19T04:18:09.307Z,988.00
2023-01-19T04:19:09.306Z,988.01
2023-01-19T04:20:09.316Z,988.08
2023-01-19T04:21:09.266Z,988.06
2023-01-19T04:22:09.232Z,988.04
2023-01-19T04:23:09.249Z,988.01
2023-01-19T04:24:09.235Z,988.09
2023-01-19T04:25:09.223Z,988.14
2023-01-19T04:26:09.208Z,988.12
2023-01-19T04:27:09.180Z,988.11
2023-01-19T04:28:09.157Z,988.05
2023-01-19T04:29:09.218Z,988.10
2023-01-19T04:30:09.179Z,988.16
2023-01-19T04:31:09.158Z,988.12
2023-01-19T04:32:09.136Z,988.11
2023-01-19T04:33:09.147Z,988.09
2023-01-19T04:34:09.113Z,988.01
2023-01-19T04:35:09.114Z,988.05
2023-01-19T04:36:09.093Z,988.09
2023-01-19T04:37:09.075Z,988.10
2023-01-19T04:38:09.049Z,988.08
2023-01-19T04:39:09.047Z,988.06
2023-01-19T04:40:09.036Z,988.03
2023-01-19T04:41:09.053Z,988.03
2023-01-19T04:42:09.024Z,988.06
2023-01-19T04:43:09.007Z,988.05
2023-01-19T04:44:08.989Z,988.14
2023-01-19T04:45:08.979Z,988.04
2023-01-19T04:46:08.987Z,988.07
2023-01-19T04:47:08.995Z,988.13
2023-01-19T04:48:08.957Z,988.14
2023-01-19T04:49:08.919Z,988.10
2023-01-19T04:50:08.927Z,988.04
2023-01-19T04:51:08.932Z,988.05
2023-01-19T04:52:08.939Z,988.05
2023-01-19T04:53:08.901Z,988.02
2023-01-19T04:54:09.039Z,988.04
2023-01-19T04:55:08.860Z,988.00
2023-01-19T04:56:08.848Z,988.02
2023-01-19T04:57:08.876Z,988.00
2023-01-19T04:58:08.870Z,988.08
2023-01-19T04:59:08.825Z,988.07
2023-01-19T05:00:08.840Z,988.03
2023-01-19T05:01:08.824Z,987.94
2023-01-19T05:02:08.836Z,987.96
2023-01-19T05:03:08.847Z,988.00
2023-01-19T05:04:08.791Z,988.00
2023-01-19T05:05:08.738Z,988.07
2023-01-19T05:06:08.755Z,988.06
2023-01-19T05:07:08.787Z,988.05
2023-01-19T05:08:08.788Z,988.03
2023-01-19T05:09:08.732Z,988.02
2023-01-19T05:10:08.682Z,988.07
2023-01-19T05:11:08.681Z,988.05
2023-01-19T05:12:08.685Z,988.06
2023-01-19T05:13:08.649Z,988.08
2023-01-19T05:14:08.702Z,988.09
2023-01-19T05:15:08.639Z,988.10
2023-01-19T05:16:08.688Z,988.18
2023-01-19T05:17:08.634Z,988.17
2023-01-19T05:18:08.609Z,988.20
2023-01-19T05:19:08.580Z,988.20
2023-01-19T05:20:08.597Z,988.19
2023-01-19T05:21:08.620Z,988.21
2023-01-19T05:22:08.562Z,988.19
2023-01-19T05:23:08.573Z,988.19
2023-01-19T05:24:08.555Z,988.22
2023-01-19T05:25:08.538Z,988.18
2023-01-19T05:26:09.675Z,988.25
2023-01-19T05:27:08.576Z,988.21
2023-01-19T05:28:08.503Z,988.28
2023-01-19T05:29:08.484Z,988.20
2023-01-19T05:30:08.481Z,988.28
2023-01-19T05:31:08.560Z,988.27
2023-01-19T05:32:08.455Z,988.27
2023-01-19T05:33:08.484Z,988.33
2023-01-19T05:34:08.435Z,988.36
2023-01-19T05:35:08.417Z,988.33
2023-01-19T05:36:08.446Z,988.41
2023-01-19T05:37:08.404Z,988.40
2023-01-19T05:38:08.362Z,988.44
2023-01-19T05:39:08.387Z,988.42
2023-01-19T05:40:08.372Z,988.40
2023-01-19T05:41:08.394Z,988.42
2023-01-19T05:42:08.369Z,988.39
2023-01-19T05:43:08.388Z,988.34
2023-01-19T05:44:08.317Z,988.37
2023-01-19T05:45:08.306Z,988.38
2023-01-19T05:46:08.289Z,988.33
2023-01-19T05:47:08.319Z,988.40
2023-01-19T05:48:09.461Z,988.37
2023-01-19T05:49:08.260Z,988.32
2023-01-19T05:50:08.269Z,988.41
2023-01-19T05:51:08.285Z,988.33
2023-01-19T05:52:08.243Z,988.41
2023-01-19T05:53:08.257Z,988.37
2023-01-19T05:54:08.204Z,988.39
2023-01-19T05:55:08.221Z,988.31
2023-01-19T05:56:08.168Z,988.41
2023-01-19T05:57:08.194Z,988.41
2023-01-19T05:58:08.153Z,988.38
2023-01-19T05:59:08.170Z,988.40
2023-01-19T06:00:08.168Z,988.43
2023-01-19T06:01:08.141Z,988.40
2023-01-19T06:02:08.123Z,988.44
2023-01-19T06:03:08.135Z,988.44
2023-01-19T06:04:08.130Z,988.45
2023-01-19T06:05:08.101Z,988.38
2023-01-19T06:06:08.067Z,988.43
2023-01-19T06:07:08.067Z,988.47
2023-01-19T06:08:08.045Z,988.41
2023-01-19T06:09:08.027Z,988.41
2023-01-19T06:10:08.148Z,988.47
2023-01-19T06:11:08.030Z,988.38
2023-01-19T06:12:08.000Z,988.43
2023-01-19T06:13:08.025Z,988.45
2023-01-19T06:14:07.966Z,988.43
2023-01-19T06:15:07.961Z,988.46
2023-01-19T06:16:08.010Z,988.49
2023-01-19T06:17:07.961Z,988.51
2023-01-19T06:18:07.917Z,988.48
2023-01-19T06:19:07.936Z,988.46
2023-01-19T06:20:07.955Z,988.48
2023-01-19T06:21:07.983Z,988.44
2023-01-19T06:22:07.899Z,988.49
2023-01-19T06:23:07.883Z,988.49
2023-01-19T06:24:07.856Z,988.43
2023-01-19T06:25:08.226Z,988.49
2023-01-19T06:26:07.855Z,988.38
2023-01-19T06:27:07.857Z,988.47
2023-01-19T06:28:07.807Z,988.46
2023-01-19T06:29:07.797Z,988.43
2023-01-19T06:30:07.812Z,988.46
2023-01-19T06:31:07.817Z,988.42
2023-01-19T06:32:07.765Z,988.38
2023-01-19T06:33:07.810Z,988.37
2023-01-19T06:34:07.742Z,988.43
2023-01-19T06:35:07.758Z,988.41
2023-01-19T06:36:07.729Z,988.45
2023-01-19T06:37:07.719Z,988.51
2023-01-19T06:38:07.720Z,988.48
2023-01-19T06:39:07.704Z,988.45
2023-01-19T06:40:07.738Z,988.41
2023-01-19T06:41:07.704Z,988.45
2023-01-19T06:42:07.744Z,988.49
2023-01-19T06:43:07.673Z,988.49
2023-01-19T06:44:07.884Z,988.42
2023-01-19T06:45:07.640Z,988.51
2023-01-19T06:46:07.694Z,988.48
2023-01-19T06:47:15.264Z,988.43
2023-01-19T06:48:08.626Z,988.45
2023-01-19T06:49:07.597Z,988.51
2023-01-19T06:50:07.578Z,988.48
2023-01-19T06:51:07.570Z,988.52
2023-01-19T06:52:07.539Z,988.55
2023-01-19T06:53:07.584Z,988.59
2023-01-19T06:54:07.545Z,988.50
2023-01-19T06:55:07.517Z,988.55
2023-01-19T06:56:07.551Z,988.54
2023-01-19T06:57:07.486Z,988.57
2023-01-19T06:58:07.501Z,988.68
2023-01-19T06:59:07.518Z,988.65
2023-01-19T07:00:07.458Z,988.61
2023-01-19T07:01:07.543Z,988.66
2023-01-19T07:02:27.679Z,988.65
2023-01-19T07:03:08.524Z,988.60
2023-01-19T07:04:07.441Z,988.70
2023-01-19T07:05:07.445Z,988.71
2023-01-19T07:06:07.402Z,988.72
2023-01-19T07:07:07.409Z,988.72
2023-01-19T07:08:07.492Z,988.76
2023-01-19T07:09:07.366Z,988.68
2023-01-19T07:10:07.603Z,988.72
2023-01-19T07:11:24.797Z,988.76
2023-01-19T07:12:08.334Z,988.75
2023-01-19T07:13:07.376Z,988.72
2023-01-19T07:14:07.319Z,988.79
2023-01-19T07:15:07.329Z,988.82
2023-01-19T07:16:08.182Z,988.81
2023-01-19T07:17:07.280Z,988.83
2023-01-19T07:18:07.276Z,988.84
2023-01-19T07:19:07.238Z,988.82
2023-01-19T07:20:07.237Z,988.81
2023-01-19T07:21:07.261Z,988.84
2023-01-19T07:22:07.249Z,988.83
2023-01-19T07:23:07.214Z,988.84
2023-01-19T07:24:07.180Z,988.87
2023-01-19T07:25:07.184Z,988.84
2023-01-19T07:26:07.175Z,988.85
2023-01-19T07:27:07.231Z,988.83
2023-01-19T07:28:07.227Z,988.88
2023-01-19T07:29:07.137Z,988.88
2023-01-19T07:30:07.140Z,988.88
2023-01-19T07:31:07.177Z,989.00
2023-01-19T07:32:07.119Z,988.91
2023-01-19T07:33:07.154Z,988.92
2023-01-19T07:34:07.089Z,988.89
2023-01-19T07:35:07.110Z,988.86
2023-01-19T07:36:07.056Z,988.98
2023-01-19T07:37:07.044Z,988.95
2023-01-19T07:38:07.059Z,988.95
2023-01-19T07:39:07.333Z,988.92
2023-01-19T07:40:07.048Z,988.94
2023-01-19T07:41:07.024Z,989.00
2023-01-19T07:42:07.000Z,988.93
2023-01-19T07:43:07.031Z,988.97
2023-01-19T07:44:07.036Z,989.01
2023-01-19T07:45:07.035Z,988.98
2023-01-19T07:46:07.017Z,988.98
2023-01-19T07:47:06.951Z,988.96
2023-01-19T07:48:06.924Z,988.97
2023-01-19T07:49:06.959Z,989.02
2023-01-19T07:50:06.905Z,988.99
2023-01-19T07:51:06.897Z,989.01
2023-01-19T07:52:06.882Z,988.99
2023-01-19T07:53:06.917Z,988.93
2023-01-19T07:54:06.884Z,988.97
2023-01-19T07:55:06.884Z,989.03
2023-01-19T07:56:06.888Z,989.01
2023-01-19T07:57:06.894Z,989.05
2023-01-19T07:58:06.797Z,989.03
2023-01-19T07:59:06.881Z,988.91
2023-01-19T08:00:06.811Z,988.97
2023-01-19T08:01:06.892Z,989.01
2023-01-19T08:02:06.983Z,988.96
2023-01-19T08:03:06.789Z,988.93
2023-01-19T08:04:06.775Z,988.98
2023-01-19T08:05:06.779Z,988.96
2023-01-19T08:06:06.748Z,989.03
2023-01-19T08:07:06.706Z,989.01
2023-01-19T08:08:06.699Z,988.99
2023-01-19T08:09:06.715Z,989.04
2023-01-19T08:10:06.717Z,988.99
2023-01-19T08:11:07.313Z,988.99
2023-01-19T08:12:06.673Z,988.98
2023-01-19T08:13:06.661Z,989.02
2023-01-19T08:14:08.031Z,989.01
2023-01-19T08:15:06.741Z,989.00
2023-01-19T08:16:06.711Z,989.02
2023-01-19T08:17:06.623Z,989.02
2023-01-19T08:18:06.894Z,989.08
2023-01-19T08:19:06.596Z,989.06
2023-01-19T08:20:06.585Z,988.97
2023-01-19T08:21:06.559Z,988.99
2023-01-19T08:22:06.542Z,989.01
2023-01-19T08:23:06.582Z,988.99
2023-01-19T08:24:06.540Z,989.02
2023-01-19T08:25:06.522Z,989.04
2023-01-19T08:26:06.547Z,989.03
2023-01-19T08:27:06.663Z,989.02
2023-01-19T08:28:06.649Z,989.02
2023-01-19T08:29:06.570Z,989.08
2023-01-19T08:30:06.519Z,989.16
2023-01-19T08:31:19.205Z,989.09
2023-01-19T08:32:07.537Z,989.16
2023-01-19T08:33:06.463Z,989.14
2023-01-19T08:34:06.415Z,989.21
2023-01-19T08:35:06.410Z,989.07
2023-01-19T08:36:06.444Z,989.09
2023-01-19T08:37:06.426Z,989.11
2023-01-19T08:38:06.366Z,989.05
2023-01-19T08:39:06.367Z,989.10
2023-01-19T08:40:06.378Z,989.10
2023-01-19T08:41:06.355Z,989.06
2023-01-19T08:42:06.332Z,989.13
2023-01-19T08:43:06.365Z,989.10
2023-01-19T08:44:06.314Z,989.12
2023-01-19T08:45:06.384Z,989.09
2023-01-19T08:46:06.520Z,989.13
2023-01-19T08:47:06.503Z,989.07
2023-01-19T08:48:06.435Z,989.08
2023-01-19T08:49:06.825Z,989.13
2023-01-19T08:50:06.501Z,989.13
2023-01-19T08:51:06.753Z,989.09
2023-01-19T08:52:06.380Z,989.13
2023-01-19T08:53:07.255Z,989.16
2023-01-19T08:54:07.035Z,989.16
2023-01-19T08:55:06.416Z,989.16
2023-01-19T08:56:06.481Z,989.15
2023-01-19T08:57:06.374Z,989.17
2023-01-19T08:58:06.407Z,989.13
2023-01-19T08:59:10.927Z,989.14
2023-01-19T09:00:07.158Z,989.15
2023-01-19T09:01:06.165Z,989.11
2023-01-19T09:02:06.169Z,989.17
2023-01-19T09:03:06.386Z,989.10
2023-01-19T09:04:06.123Z,989.20
2023-01-19T09:05:06.072Z,989.23
2023-01-19T09:06:06.063Z,989.24
2023-01-19T09:08:06.245Z,989.22
2023-01-19T09:09:06.059Z,989.18
2023-01-19T09:10:06.032Z,989.26
2023-01-19T09:11:06.019Z,989.26
2023-01-19T09:12:05.979Z,989.22
2023-01-19T09:13:06.019Z,989.21
2023-01-19T09:14:05.956Z,989.20
2023-01-19T09:15:06.439Z,989.23
2023-01-19T09:16:05.951Z,989.23
2023-01-19T09:17:06.149Z,989.25
2023-01-19T09:18:05.951Z,989.31
2023-01-19T09:19:05.904Z,989.32
2023-01-19T09:20:05.908Z,989.37
2023-01-19T09:21:05.965Z,989.35
2023-01-19T09:22:05.940Z,989.32
2023-01-19T09:23:06.672Z,989.31
2023-01-19T09:24:05.950Z,989.29
2023-01-19T09:25:05.833Z,989.31
2023-01-19T09:26:06.865Z,989.32
2023-01-19T09:27:05.822Z,989.40
2023-01-19T09:28:05.836Z,989.38
2023-01-19T09:29:05.793Z,989.37
2023-01-19T09:30:05.782Z,989.38
2023-01-19T09:31:05.856Z,989.42
2023-01-19T09:32:05.742Z,989.43
2023-01-19T09:33:05.783Z,989.45
2023-01-19T09:34:05.821Z,989.39
2023-01-19T09:35:05.836Z,989.42
2023-01-19T09:36:05.737Z,989.44
2023-01-19T09:37:05.807Z,989.45
2023-01-19T09:38:05.701Z,989.43
2023-01-19T09:39:05.778Z,989.52
2023-01-19T09:40:05.722Z,989.49
2023-01-19T09:41:05.904Z,989.48
2023-01-19T09:42:06.561Z,989.51
2023-01-19T09:43:05.679Z,989.50
2023-01-19T09:44:05.623Z,989.50
2023-01-19T09:45:06.117Z,989.42
2023-01-19T09:46:06.776Z,989.49
2023-01-19T09:47:05.632Z,989.46
2023-01-19T09:48:05.602Z,989.49
2023-01-19T09:49:05.578Z,989.51
2023-01-19T09:50:05.619Z,989.45
2023-01-19T09:51:05.585Z,989.39
2023-01-19T09:52:05.547Z,989.43
2023-01-19T09:53:05.538Z,989.46
2023-01-19T09:54:05.541Z,989.35
2023-01-19T09:55:05.505Z,989.34
2023-01-19T09:56:05.502Z,989.34
2023-01-19T09:57:05.601Z,989.37
2023-01-19T09:58:05.466Z,989.29
2023-01-19T09:59:05.505Z,989.32
2023-01-19T10:00:05.470Z,989.30
2023-01-19T10:01:05.623Z,989.28
2023-01-19T10:02:05.432Z,989.29
2023-01-19T10:03:05.543Z,989.30
2023-01-19T10:04:05.432Z,989.34
2023-01-19T10:05:05.397Z,989.29
2023-01-19T10:06:05.380Z,989.29
2023-01-19T10:07:05.375Z,989.27
2023-01-19T10:08:05.417Z,989.34
2023-01-19T10:09:05.344Z,989.28
2023-01-19T10:10:05.342Z,989.28
2023-01-19T10:11:05.331Z,989.35
2023-01-19T10:12:05.307Z,989.30
2023-01-19T10:13:05.376Z,989.32
2023-01-19T10:14:05.334Z,989.27
2023-01-19T10:15:05.310Z,989.31
2023-01-19T10:16:05.399Z,989.35
2023-01-19T10:17:05.320Z,989.27
2023-01-19T10:18:05.279Z,989.26
2023-01-19T10:19:05.265Z,989.22
2023-01-19T10:20:05.230Z,989.20
2023-01-19T10:21:05.744Z,989.15
2023-01-19T10:22:05.198Z,989.21
2023-01-19T10:23:05.318Z,989.12
2023-01-19T10:24:05.915Z,989.08
2023-01-19T10:25:05.182Z,989.11
2023-01-19T10:26:05.165Z,989.08
2023-01-19T10:27:05.187Z,989.04
2023-01-19T10:28:05.181Z,989.02
2023-01-19T10:29:05.184Z,989.02
2023-01-19T10:30:05.132Z,989.01
2023-01-19T10:31:05.290Z,989.02
2023-01-19T10:32:05.172Z,989.02
2023-01-19T10:33:05.116Z,989.06
2023-01-19T10:34:05.152Z,989.01
2023-01-19T10:35:05.080Z,989.09
2023-01-19T10:36:05.036Z,989.01
2023-01-19T10:37:05.064Z,989.14
2023-01-19T10:38:05.095Z,989.14
2023-01-19T10:39:05.038Z,989.07
2023-01-19T10:40:05.127Z,989.04
2023-01-19T10:41:05.079Z,989.10
2023-01-19T10:42:05.048Z,989.13
2023-01-19T10:43:05.385Z,989.12
2023-01-19T10:44:04.996Z,989.14
2023-01-19T10:45:04.964Z,989.16
2023-01-19T10:46:04.958Z,989.10
2023-01-19T10:47:04.923Z,989.14
2023-01-19T10:48:05.073Z,989.09
2023-01-19T10:49:05.164Z,989.06
2023-01-19T10:50:05.014Z,989.13
2023-01-19T10:51:04.916Z,989.04
2023-01-19T10:52:04.892Z,989.06
2023-01-19T10:53:05.160Z,989.06
2023-01-19T10:54:04.952Z,989.01
2023-01-19T10:55:04.876Z,988.97
2023-01-19T10:56:04.805Z,989.08
2023-01-19T10:57:04.907Z,988.98
2023-01-19T10:58:04.859Z,988.83
2023-01-19T10:59:04.856Z,988.86
2023-01-19T11:00:04.889Z,988.92
2023-01-19T11:01:04.870Z,988.87
2023-01-19T11:02:05.016Z,988.85
2023-01-19T11:03:05.178Z,988.77
2023-01-19T11:04:04.810Z,988.89
2023-01-19T11:05:04.782Z,988.83
2023-01-19T11:06:04.710Z,988.79
2023-01-19T11:07:04.760Z,988.77
2023-01-19T11:08:04.682Z,988.72
2023-01-19T11:09:04.681Z,988.73
2023-01-19T11:10:04.675Z,988.77
2023-01-19T11:11:04.712Z,988.71
2023-01-19T11:12:04.660Z,988.74
2023-01-19T11:13:04.977Z,988.66
2023-01-19T11:14:04.614Z,988.58
2023-01-19T11:15:04.624Z,988.65
2023-01-19T11:16:04.635Z,988.66
2023-01-19T11:17:04.850Z,988.67
2023-01-19T11:18:04.542Z,988.61
2023-01-19T11:19:11.367Z,988.63
2023-01-19T11:20:04.538Z,988.62
2023-01-19T11:21:04.582Z,988.60
2023-01-19T11:22:04.506Z,988.59
2023-01-19T11:23:04.530Z,988.59
2023-01-19T11:24:04.515Z,988.60
2023-01-19T11:25:04.506Z,988.59
2023-01-19T11:26:04.443Z,988.55
2023-01-19T11:27:04.498Z,988.58
2023-01-19T11:28:04.487Z,988.57
2023-01-19T11:29:04.450Z,988.58
2023-01-19T11:30:04.493Z,988.57
2023-01-19T11:31:04.429Z,988.63
2023-01-19T11:32:04.423Z,988.60
2023-01-19T11:33:04.407Z,988.54
2023-01-19T11:34:04.425Z,988.48
2023-01-19T11:35:04.376Z,988.49
2023-01-19T11:36:04.375Z,988.46
2023-01-19T11:37:04.390Z,988.56
2023-01-19T11:38:04.333Z,988.52
2023-01-19T11:39:04.347Z,988.49
2023-01-19T11:40:04.292Z,988.51
2023-01-19T11:41:04.310Z,988.53
2023-01-19T11:42:04.286Z,988.47
2023-01-19T11:43:04.290Z,988.47
2023-01-19T11:44:04.353Z,988.43
2023-01-19T11:45:04.239Z,988.39
2023-01-19T11:46:04.299Z,988.27
2023-01-19T11:47:04.199Z,988.43
2023-01-19T11:48:04.446Z,988.31
2023-01-19T11:49:04.210Z,988.27
2023-01-19T11:50:04.247Z,988.33
2023-01-19T11:51:04.182Z,988.40
2023-01-19T11:52:04.195Z,988.33
2023-01-19T11:53:04.145Z,988.33
2023-01-19T11:54:04.153Z,988.37
2023-01-19T11:55:04.196Z,988.27
2023-01-19T11:56:10.354Z,988.35
2023-01-19T11:57:04.111Z,988.28
2023-01-19T11:58:04.447Z,988.30
2023-01-19T11:59:04.076Z,988.26
2023-01-19T12:00:04.075Z,988.29
2023-01-19T12:01:04.192Z,988.28
2023-01-19T12:02:04.099Z,988.37
2023-01-19T12:03:04.845Z,988.34
2023-01-19T12:04:04.031Z,988.29
2023-01-19T12:05:04.035Z,988.31
2023-01-19T12:06:04.043Z,988.23
2023-01-19T12:07:04.009Z,988.28
2023-01-19T12:08:06.468Z,988.27
2023-01-19T12:09:04.497Z,988.20
2023-01-19T12:10:03.991Z,988.31
2023-01-19T12:11:03.982Z,988.24
2023-01-19T12:12:04.253Z,988.20
2023-01-19T12:13:03.914Z,988.10
2023-01-19T12:14:03.913Z,988.15
2023-01-19T12:15:03.887Z,988.20
2023-01-19T12:16:04.421Z,988.18
2023-01-19T12:17:03.899Z,988.13
2023-01-19T12:18:04.382Z,988.18
2023-01-19T12:19:03.817Z,988.25
2023-01-19T12:20:03.828Z,988.13
2023-01-19T12:21:04.475Z,988.14
2023-01-19T12:22:03.816Z,988.08
2023-01-19T12:23:03.889Z,988.17
2023-01-19T12:24:03.837Z,988.16
2023-01-19T12:25:03.863Z,988.15
2023-01-19T12:26:04.569Z,988.17
2023-01-19T12:27:03.761Z,988.03
2023-01-19T12:28:03.737Z,988.09
2023-01-19T12:29:03.767Z,988.14